Terminal Aerodrome Forecast
Issued by NWS

Home | Current Version | Previous Version | Text Only | Print | Product List | Glossary On
Versions: 1 2 3 4 5 6 7 8 9 10 11 12 13
248
FTUS42 KTBW 240520
TAFPIE
TAF
KPIE 240520Z 2406/2506 05006KT P6SM SCT150 BKN250
     FM241400 07009KT P6SM SCT030 SCT250
     FM241800 05008KT P6SM VCTS SCT035CB SCT100 BKN250
     FM250100 06007KT P6SM SCT030 BKN080=

USA.gov is the U.S. government's official web portal to all federal, state and local government web resources and services.